Swatara, Pennsylvania
Current Conditions -  °F | °C
As of 7:56 PM on Thursday 18 Dec 2014 (Local Time) from KMDT Reporting Station
Overcast Overcast  
Wind Chill: 28°   Ceiling: 3000
Heat Index: 35°   Visibility: 10mi
Dew Point: 24°   Wind: 9mph
Humidity: 64%   Direction: 310°NW
Pressure: 30.08"   Gusts: NA
Location:  40.2634°N, 76.626°W
Report Text: KMDT 190056Z 31008KT 10SM OVC030 02/M04 A3008 RMK AO2 SLP189 T00171044
Loading
Personal Weather Stations






























Interactive Weather Map New forecast layout! Learn more

10-Day Weather Forecast

Advertisements
Track Severe Weather on mobile